sensor_id;sensor_type;location;lat;lon;timestamp;pressure;altitude;pressure_sealevel;temperature;humidity
22930;BME280;11630;42.660;23.292;2023-01-25T00:01:53;67995.43;;;4.15;100.00
22930;BME280;11630;42.660;23.292;2023-01-25T00:04:24;67997.34;;;4.18;100.00
22930;BME280;11630;42.660;23.292;2023-01-25T00:06:54;68022.67;;;4.32;100.00
22930;BME280;11630;42.660;23.292;2023-01-25T00:09:25;68023.55;;;4.39;100.00
22930;BME280;11630;42.660;23.292;2023-01-25T00:11:55;68002.73;;;4.23;100.00
22930;BME280;11630;42.660;23.292;2023-01-25T00:14:26;68014.34;;;4.30;100.00
22930;BME280;11630;42.660;23.292;2023-01-25T00:16:57;68024.56;;;4.32;100.00
22930;BME280;11630;42.660;23.292;2023-01-25T00:19:28;68007.32;;;4.24;100.00
22930;BME280;11630;42.660;23.292;2023-01-25T00:21:58;67999.20;;;4.16;100.00
22930;BME280;11630;42.660;23.292;2023-01-25T00:24:29;68002.16;;;4.18;100.00
22930;BME280;11630;42.660;23.292;2023-01-25T00:26:59;67996.50;;;4.14;100.00
22930;BME280;11630;42.660;23.292;2023-01-25T00:29:30;68015.95;;;4.32;100.00
22930;BME280;11630;42.660;23.292;2023-01-25T00:34:49;67953.53;;;3.76;100.00
22930;BME280;11630;42.660;23.292;2023-01-25T00:37:29;67954.06;;;3.76;100.00
22930;BME280;11630;42.660;23.292;2023-01-25T00:40:00;67987.33;;;4.08;100.00
22930;BME280;11630;42.660;23.292;2023-01-25T00:42:30;67974.33;;;3.93;100.00
22930;BME280;11630;42.660;23.292;2023-01-25T00:45:01;67934.88;;;3.57;100.00
22930;BME280;11630;42.660;23.292;2023-01-25T00:47:32;67927.86;;;3.53;100.00
22930;BME280;11630;42.660;23.292;2023-01-25T00:50:02;67920.54;;;3.43;100.00
22930;BME280;11630;42.660;23.292;2023-01-25T00:52:33;67916.47;;;3.35;100.00
22930;BME280;11630;42.660;23.292;2023-01-25T00:55:02;67921.64;;;3.46;100.00
22930;BME280;11630;42.660;23.292;2023-01-25T00:57:33;67934.89;;;3.60;100.00
22930;BME280;11630;42.660;23.292;2023-01-25T01:00:04;67970.52;;;3.85;100.00
22930;BME280;11630;42.660;23.292;2023-01-25T01:02:36;67946.23;;;3.68;100.00
22930;BME280;11630;42.660;23.292;2023-01-25T01:05:07;67956.99;;;3.73;100.00
22930;BME280;11630;42.660;23.292;2023-01-25T01:07:38;67862.45;;;2.88;100.00
22930;BME280;11630;42.660;23.292;2023-01-25T01:10:09;67823.86;;;2.54;100.00
22930;BME280;11630;42.660;23.292;2023-01-25T01:12:40;67822.78;;;2.53;100.00
22930;BME280;11630;42.660;23.292;2023-01-25T01:15:10;67861.40;;;2.90;100.00
22930;BME280;11630;42.660;23.292;2023-01-25T01:17:41;67837.11;;;2.70;100.00
22930;BME280;11630;42.660;23.292;2023-01-25T01:20:12;67847.91;;;2.80;100.00
22930;BME280;11630;42.660;23.292;2023-01-25T01:22:44;67886.25;;;3.12;100.00
22930;BME280;11630;42.660;23.292;2023-01-25T01:25:15;67897.87;;;3.24;100.00
22930;BME280;11630;42.660;23.292;2023-01-25T01:27:46;67907.84;;;3.30;100.00
22930;BME280;11630;42.660;23.292;2023-01-25T01:30:17;67940.80;;;3.60;100.00
22930;BME280;11630;42.660;23.292;2023-01-25T01:32:49;67944.58;;;3.64;100.00
22930;BME280;11630;42.660;23.292;2023-01-25T01:35:19;67923.80;;;3.48;100.00
22930;BME280;11630;42.660;23.292;2023-01-25T01:37:49;67856.81;;;2.87;100.00
22930;BME280;11630;42.660;23.292;2023-01-25T01:40:19;67882.73;;;3.08;100.00
22930;BME280;11630;42.660;23.292;2023-01-25T01:43:03;67881.92;;;3.08;100.00
22930;BME280;11630;42.660;23.292;2023-01-25T01:45:57;67910.27;;;3.31;100.00
22930;BME280;11630;42.660;23.292;2023-01-25T01:48:40;67879.23;;;3.08;100.00
22930;BME280;11630;42.660;23.292;2023-01-25T01:52:14;67865.73;;;2.96;100.00
22930;BME280;11630;42.660;23.292;2023-01-25T01:54:13;67897.84;;;3.19;100.00
22930;BME280;11630;42.660;23.292;2023-01-25T01:59:24;67921.63;;;3.44;100.00
22930;BME280;11630;42.660;23.292;2023-01-25T02:01:54;67957.84;;;3.77;100.00
22930;BME280;11630;42.660;23.292;2023-01-25T02:04:27;67902.97;;;3.25;100.00
22930;BME280;11630;42.660;23.292;2023-01-25T02:07:07;67887.61;;;3.15;100.00
22930;BME280;11630;42.660;23.292;2023-01-25T02:09:37;67901.66;;;3.30;100.00
22930;BME280;11630;42.660;23.292;2023-01-25T02:12:09;67902.72;;;3.26;100.00
22930;BME280;11630;42.660;23.292;2023-01-25T02:14:46;67916.24;;;3.41;100.00
22930;BME280;11630;42.660;23.292;2023-01-25T02:17:14;67922.16;;;3.44;100.00
22930;BME280;11630;42.660;23.292;2023-01-25T02:20:00;67934.34;;;3.59;100.00
22930;BME280;11630;42.660;23.292;2023-01-25T02:22:38;67937.32;;;3.61;100.00
22930;BME280;11630;42.660;23.292;2023-01-25T02:25:09;67944.05;;;3.63;100.00
22930;BME280;11630;42.660;23.292;2023-01-25T02:27:41;67952.70;;;3.71;100.00
22930;BME280;11630;42.660;23.292;2023-01-25T02:30:12;67902.45;;;3.27;100.00
22930;BME280;11630;42.660;23.292;2023-01-25T02:32:43;67911.36;;;3.34;100.00
22930;BME280;11630;42.660;23.292;2023-01-25T02:35:47;67922.16;;;3.44;100.00
22930;BME280;11630;42.660;23.292;2023-01-25T02:37:56;67934.05;;;3.55;100.00
22930;BME280;11630;42.660;23.292;2023-01-25T02:40:27;67936.23;;;3.60;100.00
22930;BME280;11630;42.660;23.292;2023-01-25T02:43:01;67926.75;;;3.47;100.00
22930;BME280;11630;42.660;23.292;2023-01-25T02:45:32;67923.25;;;3.48;100.00
22930;BME280;11630;42.660;23.292;2023-01-25T02:48:02;67929.46;;;3.52;100.00
22930;BME280;11630;42.660;23.292;2023-01-25T02:50:32;67912.72;;;3.37;100.00
22930;BME280;11630;42.660;23.292;2023-01-25T02:53:04;67895.69;;;3.20;100.00
22930;BME280;11630;42.660;23.292;2023-01-25T02:55:34;67889.22;;;3.16;100.00
22930;BME280;11630;42.660;23.292;2023-01-25T02:58:05;67866.50;;;2.91;100.00
22930;BME280;11630;42.660;23.292;2023-01-25T03:00:35;67879.20;;;3.03;100.00
22930;BME280;11630;42.660;23.292;2023-01-25T03:03:07;67877.07;;;3.06;100.00
22930;BME280;11630;42.660;23.292;2023-01-25T03:05:37;67855.98;;;2.85;100.00
22930;BME280;11630;42.660;23.292;2023-01-25T03:08:08;67867.05;;;2.94;100.00
22930;BME280;11630;42.660;23.292;2023-01-25T03:10:38;67886.25;;;3.12;100.00
22930;BME280;11630;42.660;23.292;2023-01-25T03:13:09;67879.75;;;3.06;100.00
22930;BME280;11630;42.660;23.292;2023-01-25T03:15:40;67878.69;;;3.05;100.00
22930;BME280;11630;42.660;23.292;2023-01-25T03:18:11;67858.42;;;2.88;100.00
22930;BME280;11630;42.660;23.292;2023-01-25T03:20:42;67863.83;;;2.91;100.00
22930;BME280;11630;42.660;23.292;2023-01-25T03:23:12;67850.59;;;2.80;100.00
22930;BME280;11630;42.660;23.292;2023-01-25T03:25:43;67821.95;;;2.51;100.00
22930;BME280;11630;42.660;23.292;2023-01-25T03:28:14;67835.98;;;2.64;100.00
22930;BME280;11630;42.660;23.292;2023-01-25T03:30:45;67833.03;;;2.62;100.00
22930;BME280;11630;42.660;23.292;2023-01-25T03:33:16;67828.45;;;2.59;100.00
22930;BME280;11630;42.660;23.292;2023-01-25T03:35:51;67835.47;;;2.66;100.00
22930;BME280;11630;42.660;23.292;2023-01-25T03:38:19;67857.89;;;2.88;100.00
22930;BME280;11630;42.660;23.292;2023-01-25T03:40:49;67845.71;;;2.73;100.00
22930;BME280;11630;42.660;23.292;2023-01-25T03:43:19;67826.58;;;2.59;100.00
22930;BME280;11630;42.660;23.292;2023-01-25T03:45:54;67823.33;;;2.56;100.00
22930;BME280;11630;42.660;23.292;2023-01-25T03:48:25;67824.41;;;2.57;100.00
22930;BME280;11630;42.660;23.292;2023-01-25T03:50:59;67842.52;;;2.75;100.00
22930;BME280;11630;42.660;23.292;2023-01-25T03:53:31;67845.98;;;2.74;100.00
22930;BME280;11630;42.660;23.292;2023-01-25T03:56:04;67890.56;;;3.16;100.00
22930;BME280;11630;42.660;23.292;2023-01-25T03:58:35;67892.47;;;3.19;100.00
22930;BME280;11630;42.660;23.292;2023-01-25T04:01:07;67918.13;;;3.44;100.00
22930;BME280;11630;42.660;23.292;2023-01-25T04:03:38;67887.59;;;3.12;100.00
22930;BME280;11630;42.660;23.292;2023-01-25T04:06:11;67871.13;;;2.99;100.00
22930;BME280;11630;42.660;23.292;2023-01-25T04:08:43;67850.59;;;2.80;100.00
22930;BME280;11630;42.660;23.292;2023-01-25T04:11:13;67851.13;;;2.80;100.00
22930;BME280;11630;42.660;23.292;2023-01-25T04:13:44;67853.86;;;2.85;100.00
22930;BME280;11630;42.660;23.292;2023-01-25T04:16:15;67859.23;;;2.88;100.00
22930;BME280;11630;42.660;23.292;2023-01-25T04:18:45;67834.13;;;2.66;100.00
22930;BME280;11630;42.660;23.292;2023-01-25T04:21:19;67826.58;;;2.59;100.00
22930;BME280;11630;42.660;23.292;2023-01-25T04:23:50;67810.06;;;2.40;100.00
22930;BME280;11630;42.660;23.292;2023-01-25T04:26:21;67806.58;;;2.38;100.00
22930;BME280;11630;42.660;23.292;2023-01-25T04:28:52;67831.71;;;2.65;100.00
22930;BME280;11630;42.660;23.292;2023-01-25T04:31:29;67852.25;;;2.84;100.00
22930;BME280;11630;42.660;23.292;2023-01-25T04:33:59;67860.87;;;2.92;100.00
22930;BME280;11630;42.660;23.292;2023-01-25T04:36:30;67869.79;;;2.99;100.00
22930;BME280;11630;42.660;23.292;2023-01-25T04:39:01;67865.71;;;2.94;100.00
22930;BME280;11630;42.660;23.292;2023-01-25T04:41:32;67871.13;;;2.99;100.00
22930;BME280;11630;42.660;23.292;2023-01-25T04:44:03;67868.13;;;2.95;100.00
22930;BME280;11630;42.660;23.292;2023-01-25T04:46:32;67881.66;;;3.09;100.00
22930;BME280;11630;42.660;23.292;2023-01-25T04:49:02;67858.98;;;2.89;100.00
22930;BME280;11630;42.660;23.292;2023-01-25T04:51:33;67860.06;;;2.90;100.00
22930;BME280;11630;42.660;23.292;2023-01-25T04:54:04;67835.47;;;2.66;100.00
22930;BME280;11630;42.660;23.292;2023-01-25T04:56:35;67832.78;;;2.63;100.00
22930;BME280;11630;42.660;23.292;2023-01-25T04:59:05;67819.55;;;2.52;100.00
22930;BME280;11630;42.660;23.292;2023-01-25T05:01:36;67824.41;;;2.57;100.00
22930;BME280;11630;42.660;23.292;2023-01-25T05:04:07;67799.81;;;2.30;100.00
22930;BME280;11630;42.660;23.292;2023-01-25T05:06:38;67827.09;;;2.57;100.00
22930;BME280;11630;42.660;23.292;2023-01-25T05:09:09;67807.09;;;2.36;100.00
22930;BME280;11630;42.660;23.292;2023-01-25T05:11:40;67802.52;;;2.33;100.00
22930;BME280;11630;42.660;23.292;2023-01-25T05:14:11;67791.23;;;2.28;100.00
22930;BME280;11630;42.660;23.292;2023-01-25T05:16:41;67818.45;;;2.49;100.00
22930;BME280;11630;42.660;23.292;2023-01-25T05:19:11;67802.25;;;2.34;100.00
22930;BME280;11630;42.660;23.292;2023-01-25T05:21:42;67762.06;;;1.98;100.00
22930;BME280;11630;42.660;23.292;2023-01-25T05:24:28;67795.02;;;2.31;100.00
22930;BME280;11630;42.660;23.292;2023-01-25T05:27:00;67815.48;;;2.45;100.00
22930;BME280;11630;42.660;23.292;2023-01-25T05:29:35;67796.86;;;2.29;100.00
22930;BME280;11630;42.660;23.292;2023-01-25T05:32:17;67805.52;;;2.39;100.00
22930;BME280;11630;42.660;23.292;2023-01-25T05:34:42;67793.10;;;2.28;100.00
22930;BME280;11630;42.660;23.292;2023-01-25T05:37:15;67828.17;;;2.58;100.00
22930;BME280;11630;42.660;23.292;2023-01-25T05:39:45;67827.09;;;2.57;100.00
22930;BME280;11630;42.660;23.292;2023-01-25T05:42:17;67825.46;;;2.53;100.00
22930;BME280;11630;42.660;23.292;2023-01-25T05:44:47;67831.14;;;2.62;100.00
22930;BME280;11630;42.660;23.292;2023-01-25T05:47:18;67846.80;;;2.74;100.00
22930;BME280;11630;42.660;23.292;2023-01-25T05:49:48;67827.88;;;2.54;100.00
22930;BME280;11630;42.660;23.292;2023-01-25T05:52:19;67830.85;;;2.58;100.00
22930;BME280;11630;42.660;23.292;2023-01-25T05:54:49;67827.92;;;2.59;100.00
22930;BME280;11630;42.660;23.292;2023-01-25T05:57:20;67831.71;;;2.65;100.00
22930;BME280;11630;42.660;23.292;2023-01-25T05:59:51;67828.19;;;2.60;100.00
22930;BME280;11630;42.660;23.292;2023-01-25T06:02:21;67833.82;;;2.62;100.00
22930;BME280;11630;42.660;23.292;2023-01-25T06:04:53;67837.90;;;2.67;100.00
22930;BME280;11630;42.660;23.292;2023-01-25T06:07:23;67814.97;;;2.47;100.00
22930;BME280;11630;42.660;23.292;2023-01-25T06:09:54;67823.33;;;2.56;100.00
22930;BME280;11630;42.660;23.292;2023-01-25T06:12:26;67822.52;;;2.54;100.00
22930;BME280;11630;42.660;23.292;2023-01-25T06:14:57;67826.87;;;2.63;100.00
22930;BME280;11630;42.660;23.292;2023-01-25T06:17:28;67838.45;;;2.70;100.00
22930;BME280;11630;42.660;23.292;2023-01-25T06:19:59;67840.58;;;2.67;100.00
22930;BME280;11630;42.660;23.292;2023-01-25T06:22:29;67838.17;;;2.68;100.00
22930;BME280;11630;42.660;23.292;2023-01-25T06:25:01;67834.67;;;2.66;100.00
22930;BME280;11630;42.660;23.292;2023-01-25T06:27:31;67832.78;;;2.63;100.00
22930;BME280;11630;42.660;23.292;2023-01-25T06:30:00;67849.49;;;2.76;100.00
22930;BME280;11630;42.660;23.292;2023-01-25T06:32:31;67841.36;;;2.66;100.00
22930;BME280;11630;42.660;23.292;2023-01-25T06:35:00;67836.83;;;2.68;100.00
22930;BME280;11630;42.660;23.292;2023-01-25T06:37:32;67843.03;;;2.73;100.00
22930;BME280;11630;42.660;23.292;2023-01-25T06:40:03;67840.61;;;2.72;100.00
22930;BME280;11630;42.660;23.292;2023-01-25T06:42:32;67859.23;;;2.88;100.00
22930;BME280;11630;42.660;23.292;2023-01-25T06:45:04;67856.53;;;2.85;100.00
22930;BME280;11630;42.660;23.292;2023-01-25T06:47:34;67847.63;;;2.76;100.00
22930;BME280;11630;42.660;23.292;2023-01-25T06:50:08;67863.83;;;2.91;100.00
22930;BME280;11630;42.660;23.292;2023-01-25T06:52:40;67865.44;;;2.92;100.00
22930;BME280;11630;42.660;23.292;2023-01-25T06:55:12;67837.09;;;2.67;100.00
22930;BME280;11630;42.660;23.292;2023-01-25T06:57:42;67870.05;;;2.98;100.00
22930;BME280;11630;42.660;23.292;2023-01-25T07:00:14;67855.98;;;2.85;100.00
22930;BME280;11630;42.660;23.292;2023-01-25T07:02:45;67840.87;;;2.71;100.00
22930;BME280;11630;42.660;23.292;2023-01-25T07:05:15;67827.94;;;2.61;100.00
22930;BME280;11630;42.660;23.292;2023-01-25T07:07:45;67841.42;;;2.71;100.00
22930;BME280;11630;42.660;23.292;2023-01-25T07:10:16;67848.72;;;2.79;100.00
22930;BME280;11630;42.660;23.292;2023-01-25T07:12:46;67816.09;;;2.53;100.00
22930;BME280;11630;42.660;23.292;2023-01-25T07:15:17;67869.79;;;2.99;100.00
22930;BME280;11630;42.660;23.292;2023-01-25T07:17:48;67852.50;;;2.83;100.00
22930;BME280;11630;42.660;23.292;2023-01-25T07:20:18;67841.44;;;2.74;100.00
22930;BME280;11630;42.660;23.292;2023-01-25T07:22:49;67871.94;;;3.01;100.00
22930;BME280;11630;42.660;23.292;2023-01-25T07:25:20;67917.84;;;3.40;100.00
22930;BME280;11630;42.660;23.292;2023-01-25T07:27:51;67934.31;;;3.54;100.00
22930;BME280;11630;42.660;23.292;2023-01-25T07:30:22;67912.70;;;3.34;100.00
22930;BME280;11630;42.660;23.292;2023-01-25T07:32:53;67902.41;;;3.22;100.00
22930;BME280;11630;42.660;23.292;2023-01-25T07:35:26;67913.51;;;3.36;100.00
22930;BME280;11630;42.660;23.292;2023-01-25T07:37:57;67879.75;;;3.06;100.00
22930;BME280;11630;42.660;23.292;2023-01-25T07:40:27;67899.73;;;3.25;100.00
22930;BME280;11630;42.660;23.292;2023-01-25T07:42:57;67872.76;;;3.03;100.00
22930;BME280;11630;42.660;23.292;2023-01-25T07:45:27;67863.55;;;2.92;100.00
22930;BME280;11630;42.660;23.292;2023-01-25T07:48:06;67853.02;;;2.81;100.00
22930;BME280;11630;42.660;23.292;2023-01-25T07:50:33;67836.30;;;2.68;100.00
22930;BME280;11630;42.660;23.292;2023-01-25T07:53:04;67805.27;;;2.40;100.00
22930;BME280;11630;42.660;23.292;2023-01-25T07:55:35;67807.39;;;2.40;100.00
22930;BME280;11630;42.660;23.292;2023-01-25T07:58:06;67803.34;;;2.35;100.00
22930;BME280;11630;42.660;23.292;2023-01-25T08:00:37;67771.78;;;2.07;100.00
22930;BME280;11630;42.660;23.292;2023-01-25T08:03:07;67798.72;;;2.27;100.00
22930;BME280;11630;42.660;23.292;2023-01-25T08:05:42;67806.02;;;2.35;100.00
22930;BME280;11630;42.660;23.292;2023-01-25T08:08:09;67847.09;;;2.78;100.00
22930;BME280;11630;42.660;23.292;2023-01-25T08:10:39;67821.44;;;2.53;100.00
22930;BME280;11630;42.660;23.292;2023-01-25T08:13:13;67848.69;;;2.77;100.00
22930;BME280;11630;42.660;23.292;2023-01-25T08:16:03;67818.75;;;2.50;100.00
22930;BME280;11630;42.660;23.292;2023-01-25T08:18:18;67831.42;;;2.61;100.00
22930;BME280;11630;42.660;23.292;2023-01-25T08:20:49;67827.66;;;2.60;100.00
22930;BME280;11630;42.660;23.292;2023-01-25T08:23:20;67858.16;;;2.87;100.00
22930;BME280;11630;42.660;23.292;2023-01-25T08:25:53;67861.67;;;2.91;100.00
22930;BME280;11630;42.660;23.292;2023-01-25T08:28:22;67884.63;;;3.13;100.00
22930;BME280;11630;42.660;23.292;2023-01-25T08:31:03;67875.42;;;3.00;100.00
22930;BME280;11630;42.660;23.292;2023-01-25T08:33:30;67882.43;;;3.06;100.00
22930;BME280;11630;42.660;23.292;2023-01-25T08:36:00;67913.78;;;3.35;100.00
22930;BME280;11630;42.660;23.292;2023-01-25T08:38:31;67905.67;;;3.28;100.00
22930;BME280;11630;42.660;23.292;2023-01-25T08:41:16;67905.19;;;3.35;100.00
22930;BME280;11630;42.660;23.292;2023-01-25T08:43:43;67895.69;;;3.20;100.00
22930;BME280;11630;42.660;23.292;2023-01-25T08:46:15;67872.19;;;3.00;100.00
22930;BME280;11630;42.660;23.292;2023-01-25T08:48:47;67872.72;;;2.98;100.00
22930;BME280;11630;42.660;23.292;2023-01-25T08:51:17;67877.86;;;3.03;100.00
22930;BME280;11630;42.660;23.292;2023-01-25T08:53:48;67875.70;;;3.02;100.00
22930;BME280;11630;42.660;23.292;2023-01-25T08:56:19;67911.63;;;3.36;100.00
22930;BME280;11630;42.660;23.292;2023-01-25T08:58:50;67940.53;;;3.61;100.00
22930;BME280;11630;42.660;23.292;2023-01-25T09:01:21;67931.11;;;3.56;100.00
22930;BME280;11630;42.660;23.292;2023-01-25T09:03:52;67944.91;;;3.70;100.00
22930;BME280;11630;42.660;23.292;2023-01-25T09:06:22;67944.59;;;3.66;100.00
22930;BME280;11630;42.660;23.292;2023-01-25T09:08:52;67911.89;;;3.35;100.00
22930;BME280;11630;42.660;23.292;2023-01-25T09:11:23;67931.63;;;3.54;100.00
22930;BME280;11630;42.660;23.292;2023-01-25T09:13:55;67961.60;;;3.78;100.00
22930;BME280;11630;42.660;23.292;2023-01-25T09:16:25;67936.22;;;3.57;100.00
22930;BME280;11630;42.660;23.292;2023-01-25T09:19:00;67922.97;;;3.44;100.00
22930;BME280;11630;42.660;23.292;2023-01-25T09:21:32;67917.03;;;3.41;100.00
22930;BME280;11630;42.660;23.292;2023-01-25T09:24:05;67899.20;;;3.24;100.00
22930;BME280;11630;42.660;23.292;2023-01-25T09:26:41;67899.22;;;3.27;100.00
22930;BME280;11630;42.660;23.292;2023-01-25T09:29:14;67903.56;;;3.31;100.00
22930;BME280;11630;42.660;23.292;2023-01-25T09:31:48;67921.93;;;3.50;100.00
22930;BME280;11630;42.660;23.292;2023-01-25T09:34:19;67935.67;;;3.57;100.00
22930;BME280;11630;42.660;23.292;2023-01-25T09:36:50;67921.13;;;3.48;100.00
22930;BME280;11630;42.660;23.292;2023-01-25T09:39:20;67900.84;;;3.28;100.00
22930;BME280;11630;42.660;23.292;2023-01-25T09:42:23;67885.68;;;3.09;100.00
22930;BME280;11630;42.660;23.292;2023-01-25T09:45:12;67895.44;;;3.23;100.00
22930;BME280;11630;42.660;23.292;2023-01-25T09:47:58;67940.53;;;3.61;100.00
22930;BME280;11630;42.660;23.292;2023-01-25T09:50:36;67934.31;;;3.54;100.00
22930;BME280;11630;42.660;23.292;2023-01-25T09:53:22;67949.19;;;3.69;100.00
22930;BME280;11630;42.660;23.292;2023-01-25T09:58:37;67946.52;;;3.72;100.00
22930;BME280;11630;42.660;23.292;2023-01-25T10:04:44;67979.71;;;3.96;100.00
22930;BME280;11630;42.660;23.292;2023-01-25T10:06:38;67970.85;;;3.94;100.00
22930;BME280;11630;42.660;23.292;2023-01-25T10:11:53;67968.38;;;3.88;100.00
22930;BME280;11630;42.660;23.292;2023-01-25T10:14:24;67945.67;;;3.67;100.00
22930;BME280;11630;42.660;23.292;2023-01-25T10:17:00;67968.66;;;3.87;100.00
22930;BME280;11630;42.660;23.292;2023-01-25T10:19:39;67984.85;;;4.02;100.00
22930;BME280;11630;42.660;23.292;2023-01-25T10:22:18;67987.83;;;4.03;100.00
22930;BME280;11630;42.660;23.292;2023-01-25T10:28:07;67964.89;;;3.86;100.00
22930;BME280;11630;42.660;23.292;2023-01-25T10:30:40;67987.59;;;4.07;100.00
22930;BME280;11630;42.660;23.292;2023-01-25T10:33:14;67976.48;;;3.93;100.00
22930;BME280;11630;42.660;23.292;2023-01-25T10:35:46;68270.45;;;6.65;100.00
22930;BME280;11630;42.660;23.292;2023-01-25T10:38:41;68517.31;;;8.84;100.00
22930;BME280;11630;42.660;23.292;2023-01-25T10:41:13;68429.91;;;8.11;100.00
22930;BME280;11630;42.660;23.292;2023-01-25T10:43:42;68272.64;;;6.70;100.00
22930;BME280;11630;42.660;23.292;2023-01-25T10:46:24;68138.80;;;5.44;100.00
22930;BME280;11630;42.660;23.292;2023-01-25T10:48:54;68149.61;;;5.52;100.00
22930;BME280;11630;42.660;23.292;2023-01-25T10:51:31;68078.75;;;4.94;100.00
22930;BME280;11630;42.660;23.292;2023-01-25T10:54:05;68070.33;;;4.80;100.00
22930;BME280;11630;42.660;23.292;2023-01-25T10:56:37;68113.34;;;5.21;100.00
22930;BME280;11630;42.660;23.292;2023-01-25T10:59:16;68090.88;;;4.99;100.00
22930;BME280;11630;42.660;23.292;2023-01-25T11:01:45;68043.58;;;4.59;100.00
22930;BME280;11630;42.660;23.292;2023-01-25T11:04:33;68031.12;;;4.46;100.00
22930;BME280;11630;42.660;23.292;2023-01-25T11:07:04;68056.81;;;4.70;100.00
22930;BME280;11630;42.660;23.292;2023-01-25T11:09:38;68084.13;;;4.94;100.00
22930;BME280;11630;42.660;23.292;2023-01-25T11:12:16;68014.89;;;4.31;100.00
22930;BME280;11630;42.660;23.292;2023-01-25T11:14:49;68042.19;;;4.54;100.00
22930;BME280;11630;42.660;23.292;2023-01-25T11:17:22;68081.69;;;4.91;100.00
22930;BME280;11630;42.660;23.292;2023-01-25T11:20:18;68051.41;;;4.65;100.00
22930;BME280;11630;42.660;23.292;2023-01-25T11:22:53;68069.82;;;4.85;100.00
22930;BME280;11630;42.660;23.292;2023-01-25T11:25:28;68083.06;;;4.96;100.00
22930;BME280;11630;42.660;23.292;2023-01-25T11:30:45;68017.61;;;4.36;100.00
22930;BME280;11630;42.660;23.292;2023-01-25T11:33:17;68069.81;;;4.82;100.00
22930;BME280;11630;42.660;23.292;2023-01-25T11:38:38;68110.06;;;5.13;100.00
22930;BME280;11630;42.660;23.292;2023-01-25T11:44:36;68054.94;;;4.70;100.00
22930;BME280;11630;42.660;23.292;2023-01-25T11:49:59;68034.08;;;4.47;100.00
22930;BME280;11630;42.660;23.292;2023-01-25T11:52:36;68044.09;;;4.57;100.00
22930;BME280;11630;42.660;23.292;2023-01-25T11:58:09;68111.45;;;5.16;100.00
22930;BME280;11630;42.660;23.292;2023-01-25T12:00:44;68037.05;;;4.51;100.00
22930;BME280;11630;42.660;23.292;2023-01-25T12:03:35;68086.59;;;5.00;100.00
22930;BME280;11630;42.660;23.292;2023-01-25T12:06:06;68080.60;;;4.90;100.00
22930;BME280;11630;42.660;23.292;2023-01-25T12:11:33;68067.89;;;4.79;100.00
22930;BME280;11630;42.660;23.292;2023-01-25T12:25:02;68098.72;;;5.05;100.00
22930;BME280;11630;42.660;23.292;2023-01-25T12:27:57;68098.44;;;5.04;100.00
22930;BME280;11630;42.660;23.292;2023-01-25T12:30:39;68082.25;;;4.94;100.00
22930;BME280;11630;42.660;23.292;2023-01-25T12:33:14;68069.53;;;4.83;100.00
22930;BME280;11630;42.660;23.292;2023-01-25T12:35:51;68072.22;;;4.83;100.00
22930;BME280;11630;42.660;23.292;2023-01-25T12:38:22;68082.78;;;4.94;100.00
22930;BME280;11630;42.660;23.292;2023-01-25T12:41:01;68094.14;;;5.02;100.00
22930;BME280;11630;42.660;23.292;2023-01-25T12:43:41;68077.64;;;4.88;100.00
22930;BME280;11630;42.660;23.292;2023-01-25T12:46:33;68084.95;;;4.96;100.00
22930;BME280;11630;42.660;23.292;2023-01-25T12:48:45;68006.23;;;4.23;100.00
22930;BME280;11630;42.660;23.292;2023-01-25T12:51:16;68010.81;;;4.26;100.00
22930;BME280;11630;42.660;23.292;2023-01-25T12:53:48;68011.64;;;4.28;100.00
22930;BME280;11630;42.660;23.292;2023-01-25T12:56:44;68050.58;;;4.63;100.00
22930;BME280;11630;42.660;23.292;2023-01-25T13:04:48;68002.71;;;4.18;100.00
22930;BME280;11630;42.660;23.292;2023-01-25T13:07:36;68015.71;;;4.35;100.00
22930;BME280;11630;42.660;23.292;2023-01-25T13:10:12;68025.16;;;4.40;100.00
22930;BME280;11630;42.660;23.292;2023-01-25T13:13:15;67990.82;;;4.10;100.00
22930;BME280;11630;42.660;23.292;2023-01-25T13:15:39;68012.70;;;4.26;100.00
22930;BME280;11630;42.660;23.292;2023-01-25T13:18:35;68052.44;;;4.61;100.00
22930;BME280;11630;42.660;23.292;2023-01-25T13:21:08;68042.48;;;4.58;100.00
22930;BME280;11630;42.660;23.292;2023-01-25T13:23:44;68034.13;;;4.54;100.00
22930;BME280;11630;42.660;23.292;2023-01-25T13:28:57;68019.21;;;4.35;100.00
22930;BME280;11630;42.660;23.292;2023-01-25T13:31:42;67973.53;;;3.94;100.00
22930;BME280;11630;42.660;23.292;2023-01-25T13:37:30;67999.47;;;4.18;100.00
22930;BME280;11630;42.660;23.292;2023-01-25T13:40:00;68004.09;;;4.26;100.00
22930;BME280;11630;42.660;23.292;2023-01-25T13:42:34;67993.23;;;4.08;100.00
22930;BME280;11630;42.660;23.292;2023-01-25T13:45:22;68018.63;;;4.29;100.00
22930;BME280;11630;42.660;23.292;2023-01-25T13:47:59;67967.00;;;3.83;100.00
22930;BME280;11630;42.660;23.292;2023-01-25T13:50:37;67954.33;;;3.75;100.00
22930;BME280;11630;42.660;23.292;2023-01-25T13:53:21;67941.11;;;3.64;100.00
22930;BME280;11630;42.660;23.292;2023-01-25T13:55:53;67948.41;;;3.72;100.00
22930;BME280;11630;42.660;23.292;2023-01-25T13:58:31;67966.77;;;3.89;100.00
22930;BME280;11630;42.660;23.292;2023-01-25T14:01:15;67964.63;;;3.87;100.00
22930;BME280;11630;42.660;23.292;2023-01-25T14:03:54;67964.83;;;3.81;100.00
22930;BME280;11630;42.660;23.292;2023-01-25T14:06:37;67972.20;;;3.94;100.00
22930;BME280;11630;42.660;23.292;2023-01-25T14:09:15;67969.40;;;3.79;100.00
22930;BME280;11630;42.660;23.292;2023-01-25T14:11:52;67962.72;;;3.84;100.00
22930;BME280;11630;42.660;23.292;2023-01-25T14:14:30;67982.17;;;4.02;100.00
22930;BME280;11630;42.660;23.292;2023-01-25T14:17:15;67973.53;;;3.94;100.00
22930;BME280;11630;42.660;23.292;2023-01-25T14:19:52;67970.02;;;3.89;100.00